sensor_id;sensor_type;location;lat;lon;timestamp;P1;durP1;ratioP1;P2;durP2;ratioP2
52488;SDS011;38399;52.236;104.280;2022-09-09T00:02:26;15.50;;;3.70;;
52488;SDS011;38399;52.236;104.280;2022-09-09T00:04:45;28.30;;;5.97;;
52488;SDS011;38399;52.236;104.280;2022-09-09T00:07:25;11.27;;;3.65;;
52488;SDS011;38399;52.236;104.280;2022-09-09T00:12:46;13.25;;;3.67;;
52488;SDS011;38399;52.236;104.280;2022-09-09T00:15:40;14.23;;;3.20;;
52488;SDS011;38399;52.236;104.280;2022-09-09T00:20:57;9.85;;;3.03;;
52488;SDS011;38399;52.236;104.280;2022-09-09T00:23:42;15.73;;;3.72;;
52488;SDS011;38399;52.236;104.280;2022-09-09T00:26:30;16.92;;;3.67;;
52488;SDS011;38399;52.236;104.280;2022-09-09T00:29:23;15.82;;;3.72;;
52488;SDS011;38399;52.236;104.280;2022-09-09T00:32:13;20.98;;;3.60;;
52488;SDS011;38399;52.236;104.280;2022-09-09T00:34:49;11.35;;;3.33;;
52488;SDS011;38399;52.236;104.280;2022-09-09T00:37:20;9.57;;;4.70;;
52488;SDS011;38399;52.236;104.280;2022-09-09T00:39:51;17.35;;;4.82;;
52488;SDS011;38399;52.236;104.280;2022-09-09T00:42:24;16.58;;;4.95;;
52488;SDS011;38399;52.236;104.280;2022-09-09T00:44:52;17.10;;;5.85;;
52488;SDS011;38399;52.236;104.280;2022-09-09T00:56:14;14.48;;;4.40;;
52488;SDS011;38399;52.236;104.280;2022-09-09T00:58:50;14.15;;;3.97;;
52488;SDS011;38399;52.236;104.280;2022-09-09T01:01:37;12.82;;;5.70;;
52488;SDS011;38399;52.236;104.280;2022-09-09T01:04:07;11.25;;;4.72;;
52488;SDS011;38399;52.236;104.280;2022-09-09T01:06:42;11.90;;;4.55;;
52488;SDS011;38399;52.236;104.280;2022-09-09T01:09:38;12.07;;;4.85;;
52488;SDS011;38399;52.236;104.280;2022-09-09T01:12:24;16.23;;;5.15;;
52488;SDS011;38399;52.236;104.280;2022-09-09T01:15:01;18.63;;;5.90;;
52488;SDS011;38399;52.236;104.280;2022-09-09T01:26:58;17.83;;;6.63;;
52488;SDS011;38399;52.236;104.280;2022-09-09T01:29:26;17.15;;;8.90;;
52488;SDS011;38399;52.236;104.280;2022-09-09T01:31:54;15.85;;;5.93;;
52488;SDS011;38399;52.236;104.280;2022-09-09T01:34:27;17.00;;;6.55;;
52488;SDS011;38399;52.236;104.280;2022-09-09T01:37:08;12.13;;;5.50;;
52488;SDS011;38399;52.236;104.280;2022-09-09T01:39:39;12.85;;;6.07;;
52488;SDS011;38399;52.236;104.280;2022-09-09T01:42:11;14.50;;;4.68;;
52488;SDS011;38399;52.236;104.280;2022-09-09T01:44:40;11.73;;;4.45;;
52488;SDS011;38399;52.236;104.280;2022-09-09T01:47:07;11.38;;;4.20;;
52488;SDS011;38399;52.236;104.280;2022-09-09T01:49:42;6.60;;;3.65;;
52488;SDS011;38399;52.236;104.280;2022-09-09T01:52:17;6.97;;;2.90;;
52488;SDS011;38399;52.236;104.280;2022-09-09T01:54:44;7.38;;;3.08;;
52488;SDS011;38399;52.236;104.280;2022-09-09T01:57:31;7.32;;;3.60;;
52488;SDS011;38399;52.236;104.280;2022-09-09T02:00:08;11.55;;;4.90;;
52488;SDS011;38399;52.236;104.280;2022-09-09T02:05:43;18.52;;;6.25;;
52488;SDS011;38399;52.236;104.280;2022-09-09T02:08:26;13.75;;;6.35;;
52488;SDS011;38399;52.236;104.280;2022-09-09T02:11:06;10.07;;;4.72;;
52488;SDS011;38399;52.236;104.280;2022-09-09T02:13:42;9.20;;;4.30;;
52488;SDS011;38399;52.236;104.280;2022-09-09T02:18:55;13.00;;;4.22;;
52488;SDS011;38399;52.236;104.280;2022-09-09T02:21:39;10.20;;;3.78;;
52488;SDS011;38399;52.236;104.280;2022-09-09T02:24:09;10.38;;;3.25;;
52488;SDS011;38399;52.236;104.280;2022-09-09T02:26:46;7.05;;;3.20;;
52488;SDS011;38399;52.236;104.280;2022-09-09T02:29:22;9.07;;;3.35;;
52488;SDS011;38399;52.236;104.280;2022-09-09T02:31:58;13.70;;;3.13;;
52488;SDS011;38399;52.236;104.280;2022-09-09T02:34:33;6.68;;;2.35;;
52488;SDS011;38399;52.236;104.280;2022-09-09T02:37:03;6.40;;;2.60;;
52488;SDS011;38399;52.236;104.280;2022-09-09T02:39:34;6.28;;;3.10;;
52488;SDS011;38399;52.236;104.280;2022-09-09T02:42:03;10.82;;;3.35;;
52488;SDS011;38399;52.236;104.280;2022-09-09T02:44:31;6.50;;;3.55;;
52488;SDS011;38399;52.236;104.280;2022-09-09T02:55:23;6.60;;;2.65;;
52488;SDS011;38399;52.236;104.280;2022-09-09T02:58:07;8.88;;;3.28;;
52488;SDS011;38399;52.236;104.280;2022-09-09T03:00:37;7.47;;;2.53;;
52488;SDS011;38399;52.236;104.280;2022-09-09T03:03:06;9.77;;;3.53;;
52488;SDS011;38399;52.236;104.280;2022-09-09T03:05:36;5.82;;;3.13;;
52488;SDS011;38399;52.236;104.280;2022-09-09T03:08:04;5.68;;;3.15;;
52488;SDS011;38399;52.236;104.280;2022-09-09T03:10:31;7.18;;;3.28;;
52488;SDS011;38399;52.236;104.280;2022-09-09T03:12:58;11.82;;;3.70;;
52488;SDS011;38399;52.236;104.280;2022-09-09T03:15:29;6.65;;;3.70;;
52488;SDS011;38399;52.236;104.280;2022-09-09T03:17:58;9.18;;;3.92;;
52488;SDS011;38399;52.236;104.280;2022-09-09T03:20:25;6.43;;;3.20;;
52488;SDS011;38399;52.236;104.280;2022-09-09T03:22:53;9.70;;;4.15;;
52488;SDS011;38399;52.236;104.280;2022-09-09T03:25:20;10.30;;;4.80;;
52488;SDS011;38399;52.236;104.280;2022-09-09T03:27:46;7.93;;;4.00;;
52488;SDS011;38399;52.236;104.280;2022-09-09T03:30:13;12.10;;;4.45;;
52488;SDS011;38399;52.236;104.280;2022-09-09T03:32:40;11.43;;;4.35;;
52488;SDS011;38399;52.236;104.280;2022-09-09T03:35:06;11.82;;;4.10;;
52488;SDS011;38399;52.236;104.280;2022-09-09T03:37:33;9.02;;;4.13;;
52488;SDS011;38399;52.236;104.280;2022-09-09T03:39:59;8.63;;;4.55;;
52488;SDS011;38399;52.236;104.280;2022-09-09T03:42:25;11.93;;;4.22;;
52488;SDS011;38399;52.236;104.280;2022-09-09T03:44:54;8.43;;;3.97;;
52488;SDS011;38399;52.236;104.280;2022-09-09T03:47:24;9.15;;;4.07;;
52488;SDS011;38399;52.236;104.280;2022-09-09T03:49:56;7.13;;;3.90;;
52488;SDS011;38399;52.236;104.280;2022-09-09T03:52:22;6.53;;;3.35;;
52488;SDS011;38399;52.236;104.280;2022-09-09T03:54:52;7.35;;;3.47;;
52488;SDS011;38399;52.236;104.280;2022-09-09T03:57:19;7.25;;;3.40;;
52488;SDS011;38399;52.236;104.280;2022-09-09T03:59:47;4.75;;;3.35;;
52488;SDS011;38399;52.236;104.280;2022-09-09T04:02:15;10.82;;;3.05;;
52488;SDS011;38399;52.236;104.280;2022-09-09T04:04:41;7.55;;;2.70;;
52488;SDS011;38399;52.236;104.280;2022-09-09T04:07:07;5.63;;;2.80;;
52488;SDS011;38399;52.236;104.280;2022-09-09T04:09:34;5.82;;;2.80;;
52488;SDS011;38399;52.236;104.280;2022-09-09T04:12:00;7.88;;;2.97;;
52488;SDS011;38399;52.236;104.280;2022-09-09T04:14:29;7.95;;;2.88;;
52488;SDS011;38399;52.236;104.280;2022-09-09T04:16:56;9.07;;;2.60;;
52488;SDS011;38399;52.236;104.280;2022-09-09T04:19:23;6.85;;;3.00;;
52488;SDS011;38399;52.236;104.280;2022-09-09T04:21:49;5.32;;;2.60;;
52488;SDS011;38399;52.236;104.280;2022-09-09T04:24:18;11.52;;;2.53;;
52488;SDS011;38399;52.236;104.280;2022-09-09T04:26:45;11.43;;;3.03;;
52488;SDS011;38399;52.236;104.280;2022-09-09T04:29:12;12.95;;;3.58;;
52488;SDS011;38399;52.236;104.280;2022-09-09T04:31:39;7.20;;;2.47;;
52488;SDS011;38399;52.236;104.280;2022-09-09T04:34:08;8.82;;;2.50;;
52488;SDS011;38399;52.236;104.280;2022-09-09T04:36:35;4.90;;;2.65;;
52488;SDS011;38399;52.236;104.280;2022-09-09T04:39:04;5.60;;;3.00;;
52488;SDS011;38399;52.236;104.280;2022-09-09T04:41:31;9.43;;;2.90;;
52488;SDS011;38399;52.236;104.280;2022-09-09T04:43:58;9.85;;;3.03;;
52488;SDS011;38399;52.236;104.280;2022-09-09T04:46:26;6.57;;;2.80;;
52488;SDS011;38399;52.236;104.280;2022-09-09T04:48:53;8.05;;;2.88;;
52488;SDS011;38399;52.236;104.280;2022-09-09T04:51:22;8.82;;;3.50;;
52488;SDS011;38399;52.236;104.280;2022-09-09T04:53:49;4.45;;;2.53;;
52488;SDS011;38399;52.236;104.280;2022-09-09T04:56:17;8.65;;;2.90;;
52488;SDS011;38399;52.236;104.280;2022-09-09T04:58:50;5.70;;;2.90;;
52488;SDS011;38399;52.236;104.280;2022-09-09T05:01:21;8.52;;;3.58;;
52488;SDS011;38399;52.236;104.280;2022-09-09T05:03:51;4.20;;;3.00;;
52488;SDS011;38399;52.236;104.280;2022-09-09T05:06:21;4.97;;;2.60;;
52488;SDS011;38399;52.236;104.280;2022-09-09T05:08:53;3.83;;;2.38;;
52488;SDS011;38399;52.236;104.280;2022-09-09T05:11:25;4.78;;;2.85;;
52488;SDS011;38399;52.236;104.280;2022-09-09T05:13:58;7.63;;;3.20;;
52488;SDS011;38399;52.236;104.280;2022-09-09T05:16:24;6.00;;;2.95;;
52488;SDS011;38399;52.236;104.280;2022-09-09T05:18:51;4.95;;;2.25;;
52488;SDS011;38399;52.236;104.280;2022-09-09T05:21:20;7.18;;;3.15;;
52488;SDS011;38399;52.236;104.280;2022-09-09T05:23:48;5.63;;;2.53;;
52488;SDS011;38399;52.236;104.280;2022-09-09T05:26:19;8.20;;;2.88;;
52488;SDS011;38399;52.236;104.280;2022-09-09T05:28:49;6.00;;;2.67;;
52488;SDS011;38399;52.236;104.280;2022-09-09T05:31:15;5.75;;;2.17;;
52488;SDS011;38399;52.236;104.280;2022-09-09T05:33:45;8.95;;;2.95;;
52488;SDS011;38399;52.236;104.280;2022-09-09T05:36:14;8.90;;;2.38;;
52488;SDS011;38399;52.236;104.280;2022-09-09T05:38:42;4.85;;;2.00;;
52488;SDS011;38399;52.236;104.280;2022-09-09T05:41:10;5.80;;;2.45;;
52488;SDS011;38399;52.236;104.280;2022-09-09T05:43:37;7.28;;;2.50;;
52488;SDS011;38399;52.236;104.280;2022-09-09T05:46:05;5.78;;;2.58;;
52488;SDS011;38399;52.236;104.280;2022-09-09T05:48:37;3.40;;;2.58;;
52488;SDS011;38399;52.236;104.280;2022-09-09T05:51:08;5.78;;;2.63;;
52488;SDS011;38399;52.236;104.280;2022-09-09T05:53:37;9.80;;;3.15;;
52488;SDS011;38399;52.236;104.280;2022-09-09T05:56:05;6.32;;;2.40;;
52488;SDS011;38399;52.236;104.280;2022-09-09T05:58:36;2.50;;;2.08;;
52488;SDS011;38399;52.236;104.280;2022-09-09T06:03:35;4.88;;;2.25;;
52488;SDS011;38399;52.236;104.280;2022-09-09T06:06:04;6.35;;;2.33;;
52488;SDS011;38399;52.236;104.280;2022-09-09T06:08:36;5.57;;;2.40;;
52488;SDS011;38399;52.236;104.280;2022-09-09T06:11:18;4.60;;;2.33;;
52488;SDS011;38399;52.236;104.280;2022-09-09T06:13:49;3.15;;;2.10;;
52488;SDS011;38399;52.236;104.280;2022-09-09T06:16:19;5.80;;;2.38;;
52488;SDS011;38399;52.236;104.280;2022-09-09T06:18:50;4.95;;;2.80;;
52488;SDS011;38399;52.236;104.280;2022-09-09T06:21:18;4.30;;;2.10;;
52488;SDS011;38399;52.236;104.280;2022-09-09T06:23:47;5.10;;;2.40;;
52488;SDS011;38399;52.236;104.280;2022-09-09T06:26:15;5.95;;;2.40;;
52488;SDS011;38399;52.236;104.280;2022-09-09T06:28:51;2.55;;;2.20;;
52488;SDS011;38399;52.236;104.280;2022-09-09T06:31:23;4.18;;;2.58;;
52488;SDS011;38399;52.236;104.280;2022-09-09T06:33:52;4.30;;;2.63;;
52488;SDS011;38399;52.236;104.280;2022-09-09T06:36:33;3.58;;;2.17;;
52488;SDS011;38399;52.236;104.280;2022-09-09T06:39:01;3.65;;;2.33;;
52488;SDS011;38399;52.236;104.280;2022-09-09T06:41:30;3.00;;;2.63;;
52488;SDS011;38399;52.236;104.280;2022-09-09T06:44:01;3.33;;;2.42;;
52488;SDS011;38399;52.236;104.280;2022-09-09T06:46:36;3.50;;;2.17;;
52488;SDS011;38399;52.236;104.280;2022-09-09T06:49:02;6.13;;;2.60;;
52488;SDS011;38399;52.236;104.280;2022-09-09T06:51:30;4.95;;;2.55;;
52488;SDS011;38399;52.236;104.280;2022-09-09T06:53:58;3.25;;;2.40;;
52488;SDS011;38399;52.236;104.280;2022-09-09T06:56:27;4.70;;;2.88;;
52488;SDS011;38399;52.236;104.280;2022-09-09T06:58:56;3.25;;;2.53;;
52488;SDS011;38399;52.236;104.280;2022-09-09T07:01:29;3.42;;;2.38;;
52488;SDS011;38399;52.236;104.280;2022-09-09T07:04:00;5.22;;;2.67;;
52488;SDS011;38399;52.236;104.280;2022-09-09T07:06:28;5.72;;;2.17;;
52488;SDS011;38399;52.236;104.280;2022-09-09T07:08:59;6.05;;;2.60;;
52488;SDS011;38399;52.236;104.280;2022-09-09T07:11:29;7.38;;;2.65;;
52488;SDS011;38399;52.236;104.280;2022-09-09T07:13:57;3.67;;;2.58;;
52488;SDS011;38399;52.236;104.280;2022-09-09T07:16:25;5.40;;;2.50;;
52488;SDS011;38399;52.236;104.280;2022-09-09T07:18:55;5.90;;;2.63;;
52488;SDS011;38399;52.236;104.280;2022-09-09T07:21:27;4.40;;;2.63;;
52488;SDS011;38399;52.236;104.280;2022-09-09T07:23:55;4.18;;;2.75;;
52488;SDS011;38399;52.236;104.280;2022-09-09T07:26:27;6.90;;;2.60;;
52488;SDS011;38399;52.236;104.280;2022-09-09T07:28:56;4.07;;;2.55;;
52488;SDS011;38399;52.236;104.280;2022-09-09T07:31:24;5.88;;;2.40;;
52488;SDS011;38399;52.236;104.280;2022-09-09T07:34:04;5.05;;;2.25;;
52488;SDS011;38399;52.236;104.280;2022-09-09T07:36:33;5.85;;;2.85;;
52488;SDS011;38399;52.236;104.280;2022-09-09T07:39:03;5.78;;;2.40;;
52488;SDS011;38399;52.236;104.280;2022-09-09T07:41:37;3.75;;;2.83;;
52488;SDS011;38399;52.236;104.280;2022-09-09T07:44:07;8.43;;;3.10;;
52488;SDS011;38399;52.236;104.280;2022-09-09T07:46:39;5.13;;;2.38;;
52488;SDS011;38399;52.236;104.280;2022-09-09T07:49:08;5.85;;;2.38;;
52488;SDS011;38399;52.236;104.280;2022-09-09T07:51:38;6.25;;;2.45;;
52488;SDS011;38399;52.236;104.280;2022-09-09T07:54:08;3.90;;;2.60;;
52488;SDS011;38399;52.236;104.280;2022-09-09T07:56:40;3.13;;;2.40;;
52488;SDS011;38399;52.236;104.280;2022-09-09T07:59:09;9.10;;;2.92;;
52488;SDS011;38399;52.236;104.280;2022-09-09T08:01:40;7.30;;;2.70;;
52488;SDS011;38399;52.236;104.280;2022-09-09T08:04:15;5.25;;;2.30;;
52488;SDS011;38399;52.236;104.280;2022-09-09T08:06:48;4.78;;;2.58;;
52488;SDS011;38399;52.236;104.280;2022-09-09T08:09:20;5.47;;;2.72;;
52488;SDS011;38399;52.236;104.280;2022-09-09T08:11:48;9.95;;;3.28;;
52488;SDS011;38399;52.236;104.280;2022-09-09T08:14:16;4.45;;;2.80;;
52488;SDS011;38399;52.236;104.280;2022-09-09T08:16:45;5.75;;;2.40;;
52488;SDS011;38399;52.236;104.280;2022-09-09T08:19:16;7.40;;;3.05;;
52488;SDS011;38399;52.236;104.280;2022-09-09T08:21:44;3.83;;;2.67;;
52488;SDS011;38399;52.236;104.280;2022-09-09T08:24:12;5.47;;;2.45;;
52488;SDS011;38399;52.236;104.280;2022-09-09T08:26:47;4.97;;;2.50;;
52488;SDS011;38399;52.236;104.280;2022-09-09T08:29:21;3.20;;;2.00;;
52488;SDS011;38399;52.236;104.280;2022-09-09T08:31:54;4.03;;;2.15;;
52488;SDS011;38399;52.236;104.280;2022-09-09T08:34:24;4.13;;;2.33;;
52488;SDS011;38399;52.236;104.280;2022-09-09T08:36:53;5.28;;;2.58;;
52488;SDS011;38399;52.236;104.280;2022-09-09T08:39:26;5.88;;;2.35;;
52488;SDS011;38399;52.236;104.280;2022-09-09T08:58:14;12.80;;;2.75;;
52488;SDS011;38399;52.236;104.280;2022-09-09T09:03:22;9.00;;;3.05;;
52488;SDS011;38399;52.236;104.280;2022-09-09T09:06:01;7.55;;;2.47;;
52488;SDS011;38399;52.236;104.280;2022-09-09T09:08:38;9.05;;;2.65;;
52488;SDS011;38399;52.236;104.280;2022-09-09T09:11:12;8.73;;;2.70;;
52488;SDS011;38399;52.236;104.280;2022-09-09T09:19:13;9.35;;;2.70;;
52488;SDS011;38399;52.236;104.280;2022-09-09T09:21:44;11.10;;;3.17;;
52488;SDS011;38399;52.236;104.280;2022-09-09T09:27:07;6.18;;;2.33;;
52488;SDS011;38399;52.236;104.280;2022-09-09T09:29:42;10.00;;;2.00;;
52488;SDS011;38399;52.236;104.280;2022-09-09T09:32:11;4.95;;;2.10;;
52488;SDS011;38399;52.236;104.280;2022-09-09T09:34:47;11.45;;;2.67;;
52488;SDS011;38399;52.236;104.280;2022-09-09T09:37:16;10.48;;;2.15;;
52488;SDS011;38399;52.236;104.280;2022-09-09T09:39:50;5.93;;;2.33;;
52488;SDS011;38399;52.236;104.280;2022-09-09T09:42:17;7.00;;;2.50;;
52488;SDS011;38399;52.236;104.280;2022-09-09T09:44:46;10.10;;;2.72;;
52488;SDS011;38399;52.236;104.280;2022-09-09T09:47:22;4.88;;;2.40;;
52488;SDS011;38399;52.236;104.280;2022-09-09T09:50:19;5.13;;;1.95;;
52488;SDS011;38399;52.236;104.280;2022-09-09T09:52:55;13.13;;;2.25;;
52488;SDS011;38399;52.236;104.280;2022-09-09T09:55:26;7.03;;;2.05;;
52488;SDS011;38399;52.236;104.280;2022-09-09T09:58:15;5.40;;;1.70;;
52488;SDS011;38399;52.236;104.280;2022-09-09T10:00:48;3.10;;;1.38;;
52488;SDS011;38399;52.236;104.280;2022-09-09T10:03:22;9.20;;;1.70;;
52488;SDS011;38399;52.236;104.280;2022-09-09T10:05:54;7.00;;;2.00;;
52488;SDS011;38399;52.236;104.280;2022-09-09T10:08:22;3.28;;;1.75;;
52488;SDS011;38399;52.236;104.280;2022-09-09T10:19:32;4.82;;;1.90;;
52488;SDS011;38399;52.236;104.280;2022-09-09T10:30:23;18.30;;;4.93;;
52488;SDS011;38399;52.236;104.280;2022-09-09T10:33:08;18.40;;;3.90;;
52488;SDS011;38399;52.236;104.280;2022-09-09T10:38:40;22.60;;;5.35;;
52488;SDS011;38399;52.236;104.280;2022-09-09T10:49:46;18.35;;;4.55;;
52488;SDS011;38399;52.236;104.280;2022-09-09T10:52:20;19.42;;;4.72;;
52488;SDS011;38399;52.236;104.280;2022-09-09T11:00:05;15.75;;;5.30;;
52488;SDS011;38399;52.236;104.280;2022-09-09T11:02:40;17.23;;;6.97;;
52488;SDS011;38399;52.236;104.280;2022-09-09T11:07:44;15.57;;;5.55;;
52488;SDS011;38399;52.236;104.280;2022-09-09T11:12:51;16.92;;;4.80;;
52488;SDS011;38399;52.236;104.280;2022-09-09T11:15:35;13.48;;;3.88;;
52488;SDS011;38399;52.236;104.280;2022-09-09T11:18:08;21.45;;;5.10;;
52488;SDS011;38399;52.236;104.280;2022-09-09T11:20:39;9.73;;;3.65;;
52488;SDS011;38399;52.236;104.280;2022-09-09T11:23:13;13.52;;;4.43;;
52488;SDS011;38399;52.236;104.280;2022-09-09T11:25:56;13.90;;;3.58;;
52488;SDS011;38399;52.236;104.280;2022-09-09T11:28:35;11.13;;;3.83;;
52488;SDS011;38399;52.236;104.280;2022-09-09T11:40:24;9.15;;;2.70;;
52488;SDS011;38399;52.236;104.280;2022-09-09T11:43:02;8.32;;;2.78;;
52488;SDS011;38399;52.236;104.280;2022-09-09T11:45:33;9.77;;;2.95;;
52488;SDS011;38399;52.236;104.280;2022-09-09T11:48:01;17.02;;;3.38;;
52488;SDS011;38399;52.236;104.280;2022-09-09T11:50:30;7.78;;;2.58;;
52488;SDS011;38399;52.236;104.280;2022-09-09T11:56:10;9.18;;;2.90;;
52488;SDS011;38399;52.236;104.280;2022-09-09T11:58:40;7.63;;;2.80;;
52488;SDS011;38399;52.236;104.280;2022-09-09T12:01:38;16.02;;;5.00;;
52488;SDS011;38399;52.236;104.280;2022-09-09T12:14:56;6.70;;;2.78;;
52488;SDS011;38399;52.236;104.280;2022-09-09T12:17:24;11.07;;;3.97;;
52488;SDS011;38399;52.236;104.280;2022-09-09T12:25:47;13.35;;;4.60;;
52488;SDS011;38399;52.236;104.280;2022-09-09T12:31:13;12.75;;;3.53;;
52488;SDS011;38399;52.236;104.280;2022-09-09T12:33:43;8.63;;;2.75;;
52488;SDS011;38399;52.236;104.280;2022-09-09T12:36:24;11.82;;;3.33;;
52488;SDS011;38399;52.236;104.280;2022-09-09T12:38:55;9.65;;;4.45;;
52488;SDS011;38399;52.236;104.280;2022-09-09T12:41:36;14.07;;;3.90;;
52488;SDS011;38399;52.236;104.280;2022-09-09T12:44:09;13.75;;;4.70;;
52488;SDS011;38399;52.236;104.280;2022-09-09T12:46:36;12.93;;;3.60;;
52488;SDS011;38399;52.236;104.280;2022-09-09T12:49:23;10.18;;;3.38;;
52488;SDS011;38399;52.236;104.280;2022-09-09T12:51:53;10.98;;;3.55;;
52488;SDS011;38399;52.236;104.280;2022-09-09T12:54:22;12.68;;;3.42;;
52488;SDS011;38399;52.236;104.280;2022-09-09T12:56:49;9.48;;;3.83;;
52488;SDS011;38399;52.236;104.280;2022-09-09T13:02:16;10.40;;;4.60;;
52488;SDS011;38399;52.236;104.280;2022-09-09T13:04:45;8.02;;;3.53;;
52488;SDS011;38399;52.236;104.280;2022-09-09T13:07:12;7.93;;;2.78;;
52488;SDS011;38399;52.236;104.280;2022-09-09T13:09:41;5.15;;;2.58;;
52488;SDS011;38399;52.236;104.280;2022-09-09T13:12:13;8.20;;;3.05;;
52488;SDS011;38399;52.236;104.280;2022-09-09T13:14:43;6.25;;;2.72;;
52488;SDS011;38399;52.236;104.280;2022-09-09T13:17:17;8.63;;;2.40;;
52488;SDS011;38399;52.236;104.280;2022-09-09T13:19:48;7.13;;;2.20;;
52488;SDS011;38399;52.236;104.280;2022-09-09T13:22:28;8.95;;;2.70;;
52488;SDS011;38399;52.236;104.280;2022-09-09T13:25:00;7.72;;;2.67;;
52488;SDS011;38399;52.236;104.280;2022-09-09T13:30:00;7.70;;;3.50;;
52488;SDS011;38399;52.236;104.280;2022-09-09T13:32:26;9.57;;;2.75;;
52488;SDS011;38399;52.236;104.280;2022-09-09T13:34:55;8.15;;;2.88;;
52488;SDS011;38399;52.236;104.280;2022-09-09T13:37:36;7.43;;;3.13;;
52488;SDS011;38399;52.236;104.280;2022-09-09T13:40:04;8.27;;;2.80;;
52488;SDS011;38399;52.236;104.280;2022-09-09T13:42:32;5.60;;;2.47;;
52488;SDS011;38399;52.236;104.280;2022-09-09T13:45:03;7.97;;;2.40;;
52488;SDS011;38399;52.236;104.280;2022-09-09T13:50:20;6.43;;;3.03;;
52488;SDS011;38399;52.236;104.280;2022-09-09T13:52:47;5.75;;;3.13;;
52488;SDS011;38399;52.236;104.280;2022-09-09T13:55:15;8.38;;;2.80;;
52488;SDS011;38399;52.236;104.280;2022-09-09T13:57:55;11.27;;;3.92;;
52488;SDS011;38399;52.236;104.280;2022-09-09T14:00:27;5.72;;;2.63;;
52488;SDS011;38399;52.236;104.280;2022-09-09T14:02:55;6.05;;;2.83;;
52488;SDS011;38399;52.236;104.280;2022-09-09T14:05:22;7.07;;;3.00;;
52488;SDS011;38399;52.236;104.280;2022-09-09T14:07:49;8.18;;;3.35;;
52488;SDS011;38399;52.236;104.280;2022-09-09T14:10:16;7.60;;;3.75;;
52488;SDS011;38399;52.236;104.280;2022-09-09T14:12:42;6.18;;;3.22;;
52488;SDS011;38399;52.236;104.280;2022-09-09T14:15:09;6.10;;;3.70;;
52488;SDS011;38399;52.236;104.280;2022-09-09T14:17:37;8.40;;;4.20;;
52488;SDS011;38399;52.236;104.280;2022-09-09T14:20:05;7.82;;;4.20;;
52488;SDS011;38399;52.236;104.280;2022-09-09T14:22:35;8.52;;;4.20;;
52488;SDS011;38399;52.236;104.280;2022-09-09T14:25:02;6.97;;;4.32;;
52488;SDS011;38399;52.236;104.280;2022-09-09T14:27:29;7.03;;;4.82;;
52488;SDS011;38399;52.236;104.280;2022-09-09T14:29:56;7.93;;;4.80;;
52488;SDS011;38399;52.236;104.280;2022-09-09T14:32:23;6.50;;;3.83;;
52488;SDS011;38399;52.236;104.280;2022-09-09T14:34:49;9.18;;;3.40;;
52488;SDS011;38399;52.236;104.280;2022-09-09T14:37:16;5.03;;;2.50;;
52488;SDS011;38399;52.236;104.280;2022-09-09T14:39:43;4.47;;;2.10;;
52488;SDS011;38399;52.236;104.280;2022-09-09T14:42:13;3.28;;;2.03;;
52488;SDS011;38399;52.236;104.280;2022-09-09T14:44:40;2.67;;;1.80;;
52488;SDS011;38399;52.236;104.280;2022-09-09T14:47:06;3.05;;;2.17;;
52488;SDS011;38399;52.236;104.280;2022-09-09T14:49:34;4.28;;;2.20;;
52488;SDS011;38399;52.236;104.280;2022-09-09T14:52:01;4.15;;;2.63;;
52488;SDS011;38399;52.236;104.280;2022-09-09T14:56:54;4.00;;;2.25;;
52488;SDS011;38399;52.236;104.280;2022-09-09T14:59:22;3.92;;;2.53;;
52488;SDS011;38399;52.236;104.280;2022-09-09T15:01:49;2.30;;;2.08;;
52488;SDS011;38399;52.236;104.280;2022-09-09T15:04:15;2.90;;;1.95;;
52488;SDS011;38399;52.236;104.280;2022-09-09T15:06:42;4.18;;;2.20;;
52488;SDS011;38399;52.236;104.280;2022-09-09T15:09:12;4.40;;;1.77;;
52488;SDS011;38399;52.236;104.280;2022-09-09T15:11:38;3.22;;;2.15;;
52488;SDS011;38399;52.236;104.280;2022-09-09T15:14:05;2.85;;;2.28;;
52488;SDS011;38399;52.236;104.280;2022-09-09T15:16:33;6.18;;;2.30;;
52488;SDS011;38399;52.236;104.280;2022-09-09T15:19:01;6.95;;;2.03;;
52488;SDS011;38399;52.236;104.280;2022-09-09T15:21:33;2.63;;;1.92;;
52488;SDS011;38399;52.236;104.280;2022-09-09T15:24:01;4.40;;;2.30;;
52488;SDS011;38399;52.236;104.280;2022-09-09T15:26:27;4.15;;;2.17;;
52488;SDS011;38399;52.236;104.280;2022-09-09T15:28:56;3.78;;;1.92;;
52488;SDS011;38399;52.236;104.280;2022-09-09T15:31:25;4.45;;;2.13;;
52488;SDS011;38399;52.236;104.280;2022-09-09T15:33:57;2.67;;;1.90;;
52488;SDS011;38399;52.236;104.280;2022-09-09T15:38:59;5.20;;;2.33;;
52488;SDS011;38399;52.236;104.280;2022-09-09T15:41:27;3.08;;;2.15;;
52488;SDS011;38399;52.236;104.280;2022-09-09T15:43:55;6.63;;;2.63;;
52488;SDS011;38399;52.236;104.280;2022-09-09T15:48:56;5.65;;;2.83;;
52488;SDS011;38399;52.236;104.280;2022-09-09T15:51:25;5.18;;;2.78;;
52488;SDS011;38399;52.236;104.280;2022-09-09T15:53:55;4.47;;;2.53;;
52488;SDS011;38399;52.236;104.280;2022-09-09T15:56:23;5.50;;;2.47;;
52488;SDS011;38399;52.236;104.280;2022-09-09T15:58:50;6.82;;;3.13;;
52488;SDS011;38399;52.236;104.280;2022-09-09T16:01:18;7.95;;;2.55;;
52488;SDS011;38399;52.236;104.280;2022-09-09T16:03:45;7.18;;;3.17;;
52488;SDS011;38399;52.236;104.280;2022-09-09T16:06:13;7.85;;;3.47;;
52488;SDS011;38399;52.236;104.280;2022-09-09T16:08:41;5.88;;;3.00;;
52488;SDS011;38399;52.236;104.280;2022-09-09T16:11:13;5.97;;;3.03;;
52488;SDS011;38399;52.236;104.280;2022-09-09T16:13:42;6.78;;;3.10;;
52488;SDS011;38399;52.236;104.280;2022-09-09T16:16:12;5.82;;;3.33;;
52488;SDS011;38399;52.236;104.280;2022-09-09T16:18:41;7.63;;;3.55;;
52488;SDS011;38399;52.236;104.280;2022-09-09T16:21:29;7.43;;;2.47;;
52488;SDS011;38399;52.236;104.280;2022-09-09T16:23:58;8.52;;;2.35;;
52488;SDS011;38399;52.236;104.280;2022-09-09T16:26:26;8.07;;;2.97;;
52488;SDS011;38399;52.236;104.280;2022-09-09T16:28:54;6.78;;;2.65;;
52488;SDS011;38399;52.236;104.280;2022-09-09T16:31:22;5.88;;;2.30;;
52488;SDS011;38399;52.236;104.280;2022-09-09T16:33:49;7.15;;;2.50;;
52488;SDS011;38399;52.236;104.280;2022-09-09T16:36:17;13.07;;;3.15;;
52488;SDS011;38399;52.236;104.280;2022-09-09T16:38:52;4.78;;;2.30;;
52488;SDS011;38399;52.236;104.280;2022-09-09T16:41:20;6.15;;;2.58;;
52488;SDS011;38399;52.236;104.280;2022-09-09T16:43:47;4.65;;;2.50;;
52488;SDS011;38399;52.236;104.280;2022-09-09T16:46:22;5.30;;;2.25;;
52488;SDS011;38399;52.236;104.280;2022-09-09T16:48:49;4.57;;;2.03;;
52488;SDS011;38399;52.236;104.280;2022-09-09T16:51:21;5.35;;;2.03;;
52488;SDS011;38399;52.236;104.280;2022-09-09T16:53:51;3.85;;;2.08;;
52488;SDS011;38399;52.236;104.280;2022-09-09T16:56:19;6.68;;;2.00;;
52488;SDS011;38399;52.236;104.280;2022-09-09T16:58:53;5.22;;;2.45;;
52488;SDS011;38399;52.236;104.280;2022-09-09T17:01:22;6.55;;;2.22;;
52488;SDS011;38399;52.236;104.280;2022-09-09T17:03:53;2.80;;;1.80;;
52488;SDS011;38399;52.236;104.280;2022-09-09T17:06:23;3.58;;;2.72;;
52488;SDS011;38399;52.236;104.280;2022-09-09T17:08:54;2.55;;;1.90;;
52488;SDS011;38399;52.236;104.280;2022-09-09T17:11:23;2.95;;;1.90;;
52488;SDS011;38399;52.236;104.280;2022-09-09T17:13:50;4.03;;;1.80;;
52488;SDS011;38399;52.236;104.280;2022-09-09T17:16:18;5.45;;;2.25;;